Latest Weather Observations for Hamilton

IDV60801

Issued at 3:35 pm EDT Wednesday 22 October 2014 (issued every 30 minutes, with the page automatically refreshed every 10 minutes)

About weather observations | Map of weather stations | Latest weather observations for VIC | Other Formats
Station Details ID: 090173 Name: HAMILTON AIRPORT Lat: -37.65 Lon: 142.06 Height: 241.1 m
Data from the previous 72 hours. | See also: Recent months at Hamilton
Date/Time
EDT
Temp
°C
App
Temp
°C
Dew
Point
Rel
Hum
%
Delta-T
°C
Wind Press
QNH
hPa
Press
MSL
hPa
Rain
since 9 am
mm
Dir
 
Spd
km/h
Gust
km/h
Spd
kts
Gust
kts
22/03:30pm 31.6 28.1 13.4 33 11.0 SSW 24 32 13 17 1015.6 1015.6 0.0
22/03:00pm 32.2 28.9 10.8 27 12.5 NW 19 24 10 13 1015.9 1015.9 0.0
22/02:30pm 32.0 27.4 11.2 28 12.2 WNW 26 33 14 18 1016.0 1016.0 0.0
22/02:00pm 32.3 28.9 12.5 30 11.9 NW 22 32 12 17 1016.3 1016.3 0.0
22/01:30pm 31.8 27.7 11.6 29 11.9 NNW 24 30 13 16 1016.6 1016.6 0.0
22/01:00pm 31.3 26.3 9.5 26 12.4 N 26 41 14 22 1016.5 1016.5 0.0
22/12:30pm 29.9 26.3 11.9 33 10.6 N 22 28 12 15 1016.9 1016.9 0.0
22/12:00pm 26.8 22.9 10.9 37 9.1 N 22 30 12 16 1017.4 1017.4 0.0
22/11:30am 25.9 22.5 11.3 40 8.4 N 20 28 11 15 1017.8 1017.8 0.0
22/11:00am 26.0 22.3 11.4 40 8.4 N 22 30 12 16 1017.9 1017.9 0.0
22/10:30am 26.9 22.8 11.4 38 8.9 N 24 33 13 18 1017.9 1017.9 0.0
22/10:00am 26.3 20.8 10.5 37 8.9 N 30 37 16 20 1018.1 1018.1 0.0
22/09:30am 25.0 19.4 10.1 39 8.3 N 30 37 16 20 1018.1 1018.1 0.0
22/09:00am 24.7 19.4 9.8 39 8.3 N 28 39 15 21 1018.0 1018.0 0.0
22/08:30am 23.4 18.8 9.8 42 7.5 N 24 33 13 18 1018.0 1018.0 0.0
22/08:00am 20.8 16.5 9.4 48 6.1 N 22 28 12 15 1017.9 1017.9 0.0
22/07:30am 21.3 15.4 9.2 46 6.5 N 30 41 16 22 1017.8 1017.8 0.0
22/07:00am 20.9 16.3 9.8 49 6.0 N 24 32 13 17 1018.2 1018.2 0.0
22/06:30am 19.7 15.2 9.9 53 5.3 N 24 30 13 16 1018.1 1018.1 0.0
22/06:00am 16.9 13.7 9.8 63 3.8 NNW 17 20 9 11 1018.0 1018.0 0.0
22/05:30am 15.3 12.7 9.4 68 3.1 N 13 15 7 8 1017.8 1017.8 0.0
22/05:00am 16.1 13.8 9.1 63 3.6 N 11 13 6 7 1017.8 1017.8 0.0
22/04:30am 17.8 14.0 9.2 57 4.5 N 19 24 10 13 1017.8 1017.8 0.0
22/04:00am 17.6 13.8 9.2 58 4.4 N 19 22 10 12 1018.0 1018.0 0.0
22/03:30am 16.1 13.0 8.8 62 3.8 N 15 17 8 9 1018.3 1018.3 0.0
22/03:00am 14.6 11.9 9.0 69 2.9 N 13 17 7 9 1018.4 1018.4 0.0
22/02:30am 15.4 12.9 8.4 63 3.6 N 11 13 6 7 1018.8 1018.8 0.0
22/02:00am 15.9 13.4 8.4 61 3.8 NNE 11 13 6 7 1019.1 1019.2 0.0
22/01:30am 16.0 13.5 8.2 60 4.0 NNE 11 15 6 8 1019.7 1019.7 0.0
22/01:00am 15.2 13.6 8.7 65 3.3 NNE 7 9 4 5 1020.0 1020.0 0.0
22/12:30am 16.7 14.2 8.4 58 4.3 NNE 11 13 6 7 1020.2 1020.2 0.0
22/12:00am 16.9 13.4 8.6 58 4.3 NE 17 19 9 10 1020.4 1020.4 0.0
 
Date/Time
EDT
Temp
°C
App
Temp
°C
Dew
Point
Rel
Hum
%
Delta-T
°C
Wind Press
QNH
hPa
Press
MSL
hPa
Rain
since 9 am
mm
Dir
 
Spd
km/h
Gust
km/h
Spd
kts
Gust
kts
21/11:30pm 16.4 13.6 8.4 59 4.1 NE 13 15 7 8 1020.8 1020.8 0.0
21/11:00pm 16.9 14.2 9.1 60 4.1 NE 13 15 7 8 1021.1 1021.1 0.0
21/10:30pm 17.0 14.2 9.9 63 3.8 ENE 15 17 8 9 1021.3 1021.3 0.0
21/10:00pm 17.8 15.1 10.4 62 4.0 ENE 15 17 8 9 1021.5 1021.5 0.0
21/09:30pm 19.0 16.0 10.8 59 4.5 E 17 19 9 10 1021.3 1021.3 0.0
21/09:00pm 19.0 16.5 11.1 60 4.3 ENE 15 17 8 9 1021.3 1021.3 0.0
21/08:30pm 19.9 17.2 11.7 59 4.6 E 17 17 9 9 1021.1 1021.1 0.0
21/08:00pm 20.7 18.4 11.9 57 4.9 E 15 17 8 9 1021.2 1021.2 0.0
21/07:30pm 23.8 21.9 11.8 47 6.9 E 13 15 7 8 1021.2 1021.2 0.0
21/07:00pm 26.4 25.2 11.7 40 8.5 E 9 13 5 7 1021.2 1021.2 0.0
21/06:30pm 27.4 26.2 9.7 33 9.9 NNE 6 9 3 5 1021.2 1021.2 0.0
21/06:00pm 28.9 27.3 8.6 28 11.2 WNW 7 9 4 5 1021.2 1021.2 0.0
21/05:30pm 28.9 26.7 8.0 27 11.5 NW 9 15 5 8 1021.3 1021.3 0.0
21/05:00pm 29.1 27.8 9.8 30 10.9 NW 7 13 4 7 1021.4 1021.4 0.0
21/04:30pm 28.9 27.5 9.6 30 10.9 N 7 13 4 7 1021.7 1021.7 0.0
21/04:00pm 28.4 26.5 10.6 33 10.2 NW 11 17 6 9 1022.2 1022.2 0.0
21/03:41pm 28.1 26.3 10.8 34 9.9 NW 11 17 6 9 1022.3 1022.3 0.0
21/03:30pm 27.4 25.4 10.2 34 9.7 NW 11 15 6 8 1022.4 1022.5 0.0
21/03:00pm 26.7 24.3 10.0 35 9.4 NNW 13 19 7 10 1022.8 1022.9 0.0
21/02:30pm 26.6 24.4 10.7 37 9.0 WNW 13 20 7 11 1023.3 1023.4 0.0
21/02:00pm 26.1 24.0 9.9 36 9.0 WNW 11 17 6 9 1023.5 1023.6 0.0
21/01:30pm 26.0 23.6 11.4 40 8.4 NNW 15 20 8 11 1024.0 1024.0 0.0
21/01:00pm 25.3 23.2 9.6 37 8.7 NNW 11 19 6 10 1024.3 1024.3 0.0
21/12:30pm 24.3 22.2 9.8 40 8.0 NNW 11 19 6 10 1024.5 1024.5 0.0
21/12:00pm 22.9 20.5 8.6 40 7.7 N 11 17 6 9 1024.7 1024.7 0.0
21/11:30am 21.6 19.2 8.8 44 6.9 N 11 15 6 8 1024.8 1024.8 0.0
21/11:00am 20.3 18.5 8.0 45 6.4 N 7 13 4 7 1025.0 1025.0 0.0
21/10:30am 18.5 15.9 7.9 50 5.5 NNE 11 15 6 8 1025.0 1025.0 0.0
21/10:00am 16.8 14.5 7.4 54 4.7 NE 9 13 5 7 1025.0 1025.0 0.0
21/09:30am 15.3 13.4 9.0 66 3.3 NE 9 13 5 7 1025.0 1025.0 0.0
21/09:00am 12.4 10.4 8.7 78 1.9 NNE 9 11 5 6 1025.0 1025.0 0.0
21/08:30am 11.1 10.0 10.6 97 0.3 E 7 9 4 5 1024.8 1024.8 0.0
21/08:00am 8.4 6.3 8.3 99 0.0 E 9 13 5 7 1024.7 1024.7 0.0
21/07:30am 5.9 2.9 5.8 99 0.0 E 11 15 6 8 1024.6 1024.6 0.0
21/07:00am 4.6 0.2 4.5 99 0.0 ESE 17 19 9 10 1024.2 1024.2 0.0
21/06:30am 4.5 0.4 4.4 99 0.0 ESE 15 17 8 9 1023.8 1023.9 0.0
21/06:00am 5.3 0.6 5.2 99 0.0 ESE 19 20 10 11 1023.7 1023.8 0.0
21/05:53am 5.5 0.9 5.4 99 0.0 ESE 19 20 10 11 1023.7 1023.8 0.0
21/05:30am 5.8 1.2 5.7 99 0.0 ESE 19 22 10 12 1023.8 1023.9 0.0
21/05:00am 6.2 2.1 6.1 99 0.0 ESE 17 20 9 11 1024.1 1024.1 0.0
21/04:30am 6.7 1.7 6.6 99 0.0 ESE 22 28 12 15 1024.0 1024.0 0.0
21/04:23am 6.8 1.9 6.7 99 0.0 ESE 22 28 12 15 1024.0 1024.0 0.0
21/04:00am 6.9 2.3 6.5 97 0.2 ESE 20 26 11 14 1024.1 1024.1 0.0
21/03:58am 6.9 2.3 6.5 97 0.2 ESE 20 26 11 14 1024.1 1024.1 0.0
21/03:55am 7.0 2.4 6.6 97 0.2 ESE 20 24 11 13 1024.1 1024.1 0.0
21/03:30am 7.5 2.6 6.9 96 0.3 ESE 22 28 12 15 1024.5 1024.5 0.0
21/03:27am 7.6 2.7 7.0 96 0.3 E 22 28 12 15 1024.5 1024.5 0.0
21/03:00am 7.8 2.9 7.1 95 0.3 E 22 26 12 14 1024.7 1024.7 0.0
21/02:56am 7.8 3.3 7.1 95 0.3 E 20 26 11 14 1024.7 1024.7 0.0
21/02:30am 8.2 3.1 7.6 96 0.3 E 24 28 13 15 1025.0 1025.0 0.0
21/02:00am 8.2 3.1 7.6 96 0.3 E 24 30 13 16 1025.3 1025.3 0.0
21/01:30am 8.5 3.5 7.9 96 0.3 E 24 32 13 17 1025.9 1025.9 0.0
21/01:00am 8.6 2.8 8.0 96 0.3 E 28 32 15 17 1026.0 1026.1 0.0
21/12:30am 8.8 3.8 8.2 96 0.3 E 24 32 13 17 1026.4 1026.5 0.0
21/12:00am 8.8 3.0 8.0 95 0.4 E 28 35 15 19 1026.6 1026.7 0.0
 
Date/Time
EDT
Temp
°C
App
Temp
°C
Dew
Point
Rel
Hum
%
Delta-T
°C
Wind Press
QNH
hPa
Press
MSL
hPa
Rain
since 9 am
mm
Dir
 
Spd
km/h
Gust
km/h
Spd
kts
Gust
kts
20/11:30pm 9.1 3.4 8.2 94 0.4 E 28 35 15 19 1026.7 1026.8 0.0
20/11:00pm 9.2 3.0 8.0 92 0.6 E 30 37 16 20 1026.7 1026.8 0.0
20/10:30pm 9.6 2.8 7.9 89 0.8 E 33 41 18 22 1026.7 1026.8 0.0
20/10:00pm 9.9 4.1 7.8 87 1.0 E 28 39 15 21 1026.7 1026.8 0.0
20/09:30pm 10.2 3.9 7.3 82 1.4 E 30 39 16 21 1026.8 1026.9 0.0
20/09:00pm 10.8 4.3 6.7 76 1.9 E 30 41 16 22 1026.6 1026.7 0.0
20/08:30pm 11.2 5.5 6.7 74 2.2 ESE 26 33 14 18 1026.4 1026.5 0.0
20/08:00pm 12.2 6.5 6.5 68 2.7 ESE 26 32 14 17 1026.3 1026.4 0.0
20/07:30pm 13.3 7.9 6.4 63 3.3 ESE 24 32 13 17 1026.4 1026.5 0.0
20/07:00pm 14.6 9.1 5.9 56 4.2 ESE 24 32 13 17 1026.3 1026.4 0.0
20/06:30pm 15.6 9.6 5.2 50 5.0 ESE 26 35 14 19 1026.6 1026.7 0.0
20/06:00pm 16.6 9.7 4.6 45 5.7 ESE 30 41 16 22 1026.6 1026.7 0.0
20/05:30pm 17.7 10.4 4.3 41 6.4 ESE 32 41 17 22 1026.8 1026.9 0.0
20/05:00pm 18.3 11.6 5.8 44 6.2 ESE 30 39 16 21 1026.9 1027.0 0.0
20/04:30pm 18.2 11.1 6.4 46 5.9 ESE 33 43 18 23 1026.8 1026.9 0.0
20/04:08pm 18.9 12.8 6.4 44 6.3 ESE 28 46 15 25 1026.9 1027.0 0.0
20/04:00pm 19.0 12.6 6.8 45 6.2 ESE 30 41 16 22 1026.9 1027.0 0.0
20/03:30pm 18.7 12.7 6.9 46 6.0 ESE 28 41 15 22 1027.2 1027.3 0.0
20/03:00pm 19.5 13.2 7.6 46 6.1 ESE 30 39 16 21 1027.2 1027.3 0.0
20/02:30pm 18.8 12.2 7.9 49 5.6 ESE 32 41 17 22 1027.6 1027.7 0.0
20/02:00pm 18.2 11.4 7.0 48 5.6 ESE 32 43 17 23 1027.8 1027.9 0.0
20/01:30pm 17.7 10.6 6.6 48 5.6 ESE 33 44 18 24 1028.1 1028.2 0.0
20/01:00pm 16.4 9.9 6.5 52 4.9 ESE 30 39 16 21 1028.6 1028.6 0.0
20/12:30pm 15.8 8.8 6.0 52 4.8 ESE 32 43 17 23 1029.1 1029.1 0.0
20/12:00pm 15.1 7.8 5.6 53 4.5 E 33 43 18 23 1029.3 1029.3 0.0
20/11:30am 14.8 7.6 5.9 55 4.3 E 33 43 18 23 1029.7 1029.8 0.0
20/11:00am 13.6 6.3 5.5 58 3.8 E 33 43 18 23 1030.0 1030.1 0.0
20/10:47am 12.8 5.9 6.4 65 3.1 E 32 37 17 20 1030.0 1030.1 0.0
20/10:30am 12.5 4.2 6.1 65 3.1 ESE 39 50 21 27 1029.8 1029.9 0.0
20/10:12am 11.7 2.7 6.2 69 2.6 ESE 43 57 23 31 1029.8 1029.9 0.0
20/10:05am 11.3 3.3 5.6 68 2.7 ESE 37 57 20 31 1029.8 1029.9 0.0
20/10:03am 12.1 4.6 6.4 68 2.7 ESE 35 50 19 27 1029.9 1030.0 0.0
20/10:00am 11.7 3.4 6.2 69 2.6 ESE 39 50 21 27 1029.9 1030.0 0.0
20/09:30am 10.7 2.7 5.9 72 2.3 ESE 37 48 20 26 1029.7 1029.8 0.0
20/09:00am 9.7 2.1 5.9 77 1.8 ESE 35 46 19 25 1029.5 1029.6 0.0
20/08:30am 8.7 1.7 6.0 83 1.2 ESE 32 41 17 22 1029.4 1029.4 0.0
20/08:00am 7.5 0.8 5.8 89 0.8 ESE 30 39 16 21 1028.8 1028.8 0.0
20/07:30am 6.2 -0.8 5.8 97 0.2 ESE 32 37 17 20 1028.3 1028.3 0.0
20/07:00am 5.5 -0.9 5.2 98 0.1 ESE 28 35 15 19 1028.3 1028.3 0.0
20/06:30am 5.7 -0.2 5.6 99 0.0 ESE 26 32 14 17 1028.1 1028.2 0.0
20/06:00am 5.8 -0.5 5.5 98 0.1 ESE 28 35 15 19 1027.8 1027.9 0.0
20/05:30am 6.1 -0.2 5.8 98 0.1 ESE 28 39 15 21 1027.6 1027.7 0.0
20/05:00am 6.5 1.1 6.2 98 0.1 ESE 24 30 13 16 1027.4 1027.5 0.0
20/04:30am 6.8 0.3 6.5 98 0.1 ESE 30 37 16 20 1027.4 1027.5 0.0
20/04:00am 6.8 0.7 6.4 97 0.2 ESE 28 35 15 19 1027.4 1027.5 0.0
20/03:30am 6.9 1.2 6.5 97 0.2 ESE 26 32 14 17 1027.4 1027.5 0.0
20/03:00am 7.3 1.6 6.9 97 0.2 ESE 26 33 14 18 1027.6 1027.7 0.0
20/02:30am 7.6 2.0 7.2 97 0.2 ESE 26 32 14 17 1027.5 1027.6 0.0
20/02:00am 8.1 2.6 7.5 96 0.3 SE 26 35 14 19 1028.1 1028.2 0.0
20/01:30am 8.8 2.6 7.9 94 0.4 SE 30 46 16 25 1028.1 1028.2 0.0
20/01:00am 9.5 3.1 8.4 93 0.5 SE 32 50 17 27 1028.0 1028.1 0.0
20/12:57am 9.5 3.4 8.4 93 0.5 SE 30 50 16 27 1028.0 1028.1 0.0
20/12:42am 9.7 3.7 8.8 94 0.4 SE 30 39 16 21 1028.1 1028.2 0.0
20/12:41am 9.7 3.7 8.8 94 0.4 SE 30 39 16 21 1028.1 1028.2 0.0
20/12:30am 9.7 3.7 8.8 94 0.4 SE 30 39 16 21 1028.0 1028.1 0.0
20/12:00am 9.8 3.9 9.0 95 0.4 SE 30 43 16 23 1028.0 1028.1 0.0
 
Date/Time
EDT
Temp
°C
App
Temp
°C
Dew
Point
Rel
Hum
%
Delta-T
°C
Wind Press
QNH
hPa
Press
MSL
hPa
Rain
since 9 am
mm
Dir
 
Spd
km/h
Gust
km/h
Spd
kts
Gust
kts
19/11:30pm 9.9 4.4 9.1 95 0.4 SE 28 37 15 20 1028.1 1028.2 0.0
19/11:00pm 10.1 4.6 9.3 95 0.4 SE 28 37 15 20 1028.1 1028.2 0.0
19/10:30pm 10.4 4.6 9.5 94 0.5 SE 30 39 16 21 1028.3 1028.3 0.0
19/10:12pm 10.6 5.6 9.7 94 0.5 SE 26 37 14 20 1028.0 1028.1 0.0
19/10:06pm 10.7 5.0 9.8 94 0.5 SSE 30 44 16 24 1027.8 1027.9 0.0
19/10:00pm 10.6 4.4 9.5 93 0.6 SSE 32 44 17 24 1027.4 1027.5 0.0
19/09:30pm 10.8 5.5 9.9 94 0.5 SSE 28 37 15 20 1027.4 1027.5 0.0
19/09:21pm 10.8 6.2 9.7 93 0.6 SSE 24 35 13 19 1027.2 1027.3 0.0
19/09:00pm 11.3 6.4 9.9 91 0.7 SSE 26 35 14 19 1027.3 1027.4 0.0
19/08:30pm 12.0 7.9 10.1 88 1.0 SSE 22 32 12 17 1026.8 1026.9 0.0
19/08:18pm 12.2 7.8 10.3 88 1.0 SSE 24 32 13 17 1026.4 1026.5 0.0
19/08:00pm 12.3 8.2 10.2 87 1.1 SSE 22 28 12 15 1026.5 1026.6 0.0
19/07:30pm 12.6 9.1 10.1 85 1.3 SSE 19 26 10 14 1025.9 1025.9 0.0
19/07:23pm 12.7 9.0 10.1 84 1.4 SSE 20 24 11 13 1025.7 1025.7 0.0
19/07:00pm 13.3 10.3 10.7 84 1.4 SSE 17 24 9 13 1024.8 1024.8 0.0
19/06:30pm 13.8 10.2 10.6 81 1.7 SSE 20 26 11 14 1024.5 1024.5 0.0
19/06:00pm 14.0 9.8 11.0 82 1.6 SSE 24 35 13 19 1024.4 1024.4 0.0
19/05:30pm 14.2 9.8 11.7 85 1.4 S 26 35 14 19 1024.0 1024.0 0.0
19/05:00pm 14.9 10.6 12.0 83 1.6 S 26 35 14 19 1023.6 1023.7 0.0
19/04:30pm 15.2 9.7 12.0 81 1.8 S 32 39 17 21 1023.4 1023.5 0.0
19/04:24pm 15.9 10.4 12.6 81 1.8 S 33 39 18 21 1023.0 1023.1 0.0
19/04:00pm 17.3 12.9 13.0 76 2.4 S 28 37 15 20 1022.5 1022.6 0.0

Other Formats:

Comma delimited format used in spreadsheet applications
http://www.bom.gov.au/fwo/IDV60801/IDV60801.94829.axf

JavaScript Object Notation format (JSON) in row-major order
http://www.bom.gov.au/fwo/IDV60801/IDV60801.94829.json